Time;durP1;ratioP1;P1;durP2;ratioP2;P2;SDS_P1;SDS_P2;PMS_P1;PMS_P2;Temp;Humidity;BMP_temperature;BMP_pressure;BME280_temperature;BME280_humidity;BME280_pressure;Samples;Min_cycle;Max_cycle;Signal;HPM_P1;HPM_P2
2023/02/03 00:00:27;;;;;;;;;;;7.10;99.90;;;;;;4996305;28;19910;-66
2023/02/03 00:02:53;;;;;;;;;;;7.10;99.90;;;;;;4998412;28;19921;-66
2023/02/03 00:05:19;;;;;;;;;;;7.20;99.90;;;;;;4998479;28;19920;-63
2023/02/03 00:07:45;;;;;;;;;;;7.20;99.90;;;;;;5000532;28;19988;-65
2023/02/03 00:10:11;;;;;;;;;;;7.30;99.90;;;;;;4994386;28;19916;-64
2023/02/03 00:12:36;;;;;;;;;;;7.30;99.90;;;;;;5002199;28;19914;-64
2023/02/03 00:15:02;;;;;;;;;;;7.30;99.90;;;;;;4998289;28;19933;-64
2023/02/03 00:17:28;;;;;;;;;;;7.40;99.90;;;;;;4995011;28;19917;-65
2023/02/03 00:19:53;;;;;;;;;;;7.50;99.90;;;;;;4994882;28;20045;-64
2023/02/03 00:22:19;;;;;;;;;;;7.50;99.90;;;;;;4985118;28;19918;-65
2023/02/03 00:24:48;;;;;;;;;;;7.60;99.90;;;;;;4991604;28;19918;-65
2023/02/03 00:27:14;;;;;;;;;;;7.60;99.90;;;;;;4990356;28;20296;-65
2023/02/03 00:29:40;;;;;;;;;;;7.70;99.90;;;;;;4991586;28;19914;-65
2023/02/03 00:32:05;;;;;;;;;;;7.70;99.90;;;;;;4985240;28;20375;-65
2023/02/03 00:34:31;;;;;;;;;;;7.70;99.90;;;;;;4985821;28;20028;-65
2023/02/03 00:36:57;;;;;;;;;;;7.70;99.90;;;;;;4976770;28;19914;-63
2023/02/03 00:39:23;;;;;;;;;;;7.70;99.90;;;;;;4988471;28;19968;-65
2023/02/03 00:41:49;;;;;;;;;;;7.70;99.90;;;;;;4984972;28;19910;-65
2023/02/03 00:44:14;;;;;;;;;;;7.80;99.90;;;;;;4980314;28;20009;-63
2023/02/03 00:46:40;;;;;;;;;;;7.70;99.90;;;;;;4991290;28;19910;-65
2023/02/03 00:49:06;;;;;;;;;;;7.70;99.90;;;;;;4982689;28;19910;-65
2023/02/03 00:51:32;;;;;;;;;;;7.70;99.90;;;;;;4989061;28;20058;-65
2023/02/03 00:53:58;;;;;;;;;;;7.80;99.90;;;;;;4990628;28;19910;-65
2023/02/03 00:56:23;;;;;;;;;;;7.80;99.90;;;;;;4989879;28;19924;-66
2023/02/03 00:58:49;;;;;;;;;;;7.80;99.90;;;;;;4994298;28;20324;-67
2023/02/03 01:01:15;;;;;;;;;;;7.90;99.90;;;;;;4981303;28;19921;-66
2023/02/03 01:03:41;;;;;;;;;;;7.90;99.90;;;;;;4992627;28;19921;-64
2023/02/03 01:06:11;;;;;;;;;;;7.90;99.90;;;;;;5008912;28;20012;-65
2023/02/03 01:08:36;;;;;;;;;;;8.00;99.90;;;;;;4995328;28;20449;-66
2023/02/03 01:11:09;;;;;;;;;;;8.00;99.90;;;;;;4987844;28;20074;-66
2023/02/03 01:13:35;;;;;;;;;;;8.00;99.90;;;;;;4990945;28;19924;-66
2023/02/03 01:16:01;;;;;;;;;;;8.00;99.90;;;;;;4990469;28;19917;-64
2023/02/03 01:18:26;;;;;;;;;;;8.00;99.90;;;;;;4990536;28;19921;-64
2023/02/03 01:20:52;;;;;;;;;;;8.10;99.90;;;;;;4992606;28;19966;-65
2023/02/03 01:23:18;;;;;;;;;;;8.00;99.90;;;;;;4994991;28;19910;-64
2023/02/03 01:25:43;;;;;;;;;;;8.00;99.90;;;;;;4993756;28;19989;-65
2023/02/03 01:28:09;;;;;;;;;;;8.00;99.90;;;;;;4987254;28;19921;-65
2023/02/03 01:30:35;;;;;;;;;;;8.10;99.90;;;;;;4991466;28;19914;-66
2023/02/03 01:33:00;;;;;;;;;;;8.00;99.90;;;;;;4995971;28;20333;-65
2023/02/03 01:35:26;;;;;;;;;;;7.90;99.90;;;;;;4996441;28;20015;-64
2023/02/03 01:37:52;;;;;;;;;;;7.90;99.90;;;;;;4990729;28;19914;-63
2023/02/03 01:40:17;;;;;;;;;;;7.90;99.90;;;;;;4979521;28;20138;-66
2023/02/03 01:42:43;;;;;;;;;;;7.90;99.90;;;;;;4983483;28;20399;-66
2023/02/03 01:45:10;;;;;;;;;;;7.80;99.90;;;;;;4983125;28;19921;-66
2023/02/03 01:47:39;;;;;;;;;;;7.80;99.90;;;;;;4987922;28;20824;-66
2023/02/03 01:50:16;;;;;;;;;;;7.80;99.90;;;;;;4986359;28;19937;-65
2023/02/03 01:52:44;;;;;;;;;;;7.80;99.90;;;;;;4993531;28;19914;-64
2023/02/03 01:55:12;;;;;;;;;;;7.80;99.90;;;;;;4994000;28;20448;-66
2023/02/03 01:57:58;;;;;;;;;;;7.80;99.90;;;;;;4987561;28;19914;-64
2023/02/03 02:00:24;;;;;;;;;;;7.80;99.90;;;;;;4980461;28;19914;-64
2023/02/03 02:02:50;;;;;;;;;;;7.80;99.90;;;;;;4979932;28;20395;-65
2023/02/03 02:05:30;;;;;;;;;;;7.70;99.90;;;;;;4991032;28;19916;-65
2023/02/03 02:07:57;;;;;;;;;;;7.60;99.90;;;;;;4992272;28;19917;-66
2023/02/03 02:10:23;;;;;;;;;;;7.60;99.90;;;;;;4997039;28;19910;-68
2023/02/03 02:12:48;;;;;;;;;;;7.60;99.90;;;;;;4991981;28;19977;-66
2023/02/03 02:15:14;;;;;;;;;;;7.70;99.90;;;;;;4985701;28;20074;-66
2023/02/03 02:17:40;;;;;;;;;;;7.70;99.90;;;;;;4987779;28;19950;-66
2023/02/03 02:20:18;;;;;;;;;;;7.60;99.90;;;;;;4988652;28;19958;-64
2023/02/03 02:23:08;;;;;;;;;;;7.70;99.90;;;;;;5001882;28;19921;-66
2023/02/03 02:25:52;;;;;;;;;;;7.70;99.90;;;;;;4995314;28;19917;-64
2023/02/03 02:28:32;;;;;;;;;;;7.70;99.90;;;;;;5000821;28;19917;-65
2023/02/03 02:31:24;;;;;;;;;;;7.60;99.90;;;;;;4991635;28;19914;-67
2023/02/03 02:33:58;;;;;;;;;;;7.60;99.90;;;;;;4982048;28;19957;-67
2023/02/03 02:36:24;;;;;;;;;;;7.70;99.90;;;;;;5003624;28;19927;-66
2023/02/03 02:38:56;;;;;;;;;;;7.80;99.90;;;;;;4984313;28;19954;-65
2023/02/03 02:41:25;;;;;;;;;;;7.80;99.90;;;;;;4992679;28;19965;-64
2023/02/03 02:44:08;;;;;;;;;;;7.80;99.90;;;;;;4976262;28;19926;-67
2023/02/03 02:46:41;;;;;;;;;;;7.80;99.90;;;;;;4997808;28;20004;-66
2023/02/03 02:49:14;;;;;;;;;;;7.80;99.90;;;;;;4996891;28;19961;-67
2023/02/03 02:51:42;;;;;;;;;;;7.90;99.90;;;;;;4996437;28;19917;-65
2023/02/03 02:54:11;;;;;;;;;;;7.90;99.90;;;;;;4996178;28;20000;-66
2023/02/03 02:56:38;;;;;;;;;;;7.90;99.90;;;;;;4992751;28;19914;-65
2023/02/03 02:59:05;;;;;;;;;;;7.90;99.90;;;;;;4997017;28;19953;-66
2023/02/03 03:01:30;;;;;;;;;;;8.00;99.90;;;;;;4997183;28;19918;-65
2023/02/03 03:03:57;;;;;;;;;;;8.00;99.90;;;;;;4996383;28;19914;-66
2023/02/03 03:06:34;;;;;;;;;;;8.10;99.90;;;;;;4998070;28;19967;-65
2023/02/03 03:09:03;;;;;;;;;;;8.00;99.90;;;;;;4975824;28;19992;-66
2023/02/03 03:11:31;;;;;;;;;;;8.00;99.90;;;;;;5004855;28;19910;-67
2023/02/03 03:13:57;;;;;;;;;;;8.00;99.90;;;;;;4996017;28;19937;-66
2023/02/03 03:16:24;;;;;;;;;;;8.00;99.90;;;;;;4999685;28;20363;-66
2023/02/03 03:19:14;;;;;;;;;;;8.00;99.90;;;;;;4976270;28;19921;-66
2023/02/03 03:21:46;;;;;;;;;;;8.00;99.90;;;;;;4994404;28;19917;-66
2023/02/03 03:24:13;;;;;;;;;;;7.90;99.90;;;;;;4996680;28;19910;-66
2023/02/03 03:26:45;;;;;;;;;;;7.90;99.90;;;;;;4997056;28;19910;-66
2023/02/03 03:29:14;;;;;;;;;;;7.90;99.90;;;;;;4996393;28;19942;-65
2023/02/03 03:31:40;;;;;;;;;;;7.80;99.90;;;;;;4995937;28;20347;-66
2023/02/03 03:34:09;;;;;;;;;;;7.80;99.90;;;;;;4996854;28;19957;-66
2023/02/03 03:36:55;;;;;;;;;;;7.70;99.90;;;;;;4993750;28;20252;-65
2023/02/03 03:39:36;;;;;;;;;;;7.70;99.90;;;;;;4972543;28;19937;-64
2023/02/03 03:42:11;;;;;;;;;;;7.70;99.90;;;;;;4991946;28;19933;-65
2023/02/03 03:44:42;;;;;;;;;;;7.60;99.90;;;;;;4997170;28;19917;-64
2023/02/03 03:47:18;;;;;;;;;;;7.70;99.90;;;;;;4985411;28;20466;-66
2023/02/03 03:49:45;;;;;;;;;;;7.70;99.90;;;;;;4985554;28;19914;-63
2023/02/03 03:52:13;;;;;;;;;;;7.80;99.90;;;;;;4988617;28;19910;-64
2023/02/03 03:54:40;;;;;;;;;;;7.90;99.90;;;;;;4998216;28;20474;-65
2023/02/03 03:57:14;;;;;;;;;;;7.90;99.90;;;;;;5002894;28;19926;-65
2023/02/03 03:59:41;;;;;;;;;;;7.90;99.90;;;;;;4995941;28;20026;-66
2023/02/03 04:02:07;;;;;;;;;;;7.90;99.90;;;;;;4986895;28;20309;-67
2023/02/03 04:04:34;;;;;;;;;;;7.90;99.90;;;;;;4983701;28;19965;-65
2023/02/03 04:07:00;;;;;;;;;;;7.80;99.90;;;;;;4980140;28;20051;-66
2023/02/03 04:09:25;;;;;;;;;;;7.80;99.90;;;;;;4987886;28;19963;-66
2023/02/03 04:12:00;;;;;;;;;;;7.90;99.90;;;;;;4985332;28;19914;-65
2023/02/03 04:14:26;;;;;;;;;;;7.90;99.90;;;;;;4996011;28;19914;-68
2023/02/03 04:16:51;;;;;;;;;;;7.80;99.90;;;;;;4994425;28;20263;-64
2023/02/03 04:19:17;;;;;;;;;;;7.80;99.90;;;;;;4983294;28;20390;-63
2023/02/03 04:21:43;;;;;;;;;;;7.90;99.90;;;;;;4982751;28;20226;-64
2023/02/03 04:24:08;;;;;;;;;;;7.80;99.90;;;;;;4980351;28;19917;-64
2023/02/03 04:26:34;;;;;;;;;;;7.70;99.90;;;;;;4982529;28;19933;-66
2023/02/03 04:29:00;;;;;;;;;;;7.60;99.90;;;;;;4983870;28;19942;-65
2023/02/03 04:31:26;;;;;;;;;;;7.50;99.90;;;;;;4981970;28;20008;-65
2023/02/03 04:33:51;;;;;;;;;;;7.40;99.90;;;;;;4988891;28;19909;-65
2023/02/03 04:36:17;;;;;;;;;;;7.40;99.90;;;;;;4989012;28;20392;-67
2023/02/03 04:38:43;;;;;;;;;;;7.30;99.90;;;;;;4991737;28;19914;-67
2023/02/03 04:41:08;;;;;;;;;;;7.30;99.90;;;;;;4988897;28;19958;-64
2023/02/03 04:43:34;;;;;;;;;;;7.30;99.90;;;;;;4988222;28;20348;-62
2023/02/03 04:46:00;;;;;;;;;;;7.20;99.90;;;;;;4989671;28;19917;-66
2023/02/03 04:48:25;;;;;;;;;;;7.20;99.90;;;;;;4987105;28;19914;-66
2023/02/03 04:50:51;;;;;;;;;;;7.20;99.90;;;;;;4993881;28;19985;-66
2023/02/03 04:53:17;;;;;;;;;;;7.10;99.90;;;;;;4982417;28;19920;-66
2023/02/03 04:55:48;;;;;;;;;;;7.00;99.90;;;;;;4982286;28;19914;-61
2023/02/03 04:58:14;;;;;;;;;;;7.00;99.90;;;;;;4988139;28;19914;-67
2023/02/03 05:00:40;;;;;;;;;;;6.90;99.90;;;;;;4991218;28;20273;-66
2023/02/03 05:03:05;;;;;;;;;;;6.90;99.90;;;;;;4994295;28;20413;-65
2023/02/03 05:05:31;;;;;;;;;;;6.80;99.90;;;;;;4994421;28;19957;-64
2023/02/03 05:07:57;;;;;;;;;;;6.70;99.90;;;;;;4994574;28;20380;-65
2023/02/03 05:10:22;;;;;;;;;;;6.60;99.90;;;;;;5000153;28;19933;-66
2023/02/03 05:12:48;;;;;;;;;;;6.60;99.90;;;;;;4994530;28;19978;-64
2023/02/03 05:15:14;;;;;;;;;;;6.50;99.90;;;;;;4994497;28;20376;-64
2023/02/03 05:17:40;;;;;;;;;;;6.50;99.90;;;;;;4993611;28;19917;-63
2023/02/03 05:20:06;;;;;;;;;;;6.50;99.90;;;;;;4994287;28;20296;-64
2023/02/03 05:22:34;;;;;;;;;;;6.50;99.90;;;;;;4993723;28;19916;-68
2023/02/03 05:24:59;;;;;;;;;;;6.50;99.90;;;;;;4994796;28;19920;-64
2023/02/03 05:27:25;;;;;;;;;;;6.40;99.90;;;;;;4994112;28;20296;-66
2023/02/03 05:29:51;;;;;;;;;;;6.30;99.90;;;;;;4993456;28;19928;-62
2023/02/03 05:32:16;;;;;;;;;;;6.40;99.90;;;;;;4992168;28;19910;-62
2023/02/03 05:34:42;;;;;;;;;;;6.40;99.90;;;;;;4993351;28;19914;-64
2023/02/03 05:37:07;;;;;;;;;;;6.40;99.90;;;;;;4994067;28;19913;-65
2023/02/03 05:39:33;;;;;;;;;;;6.50;99.90;;;;;;4995485;28;19913;-64
2023/02/03 05:41:59;;;;;;;;;;;6.40;99.90;;;;;;4996533;28;19916;-63
2023/02/03 05:44:25;;;;;;;;;;;6.40;99.90;;;;;;4983765;28;19913;-64
2023/02/03 05:46:52;;;;;;;;;;;6.40;99.90;;;;;;4991374;28;19910;-64
2023/02/03 05:49:18;;;;;;;;;;;6.40;99.90;;;;;;4993528;28;19914;-64
2023/02/03 05:51:45;;;;;;;;;;;6.40;99.90;;;;;;4993272;28;19914;-65
2023/02/03 05:54:10;;;;;;;;;;;6.40;99.90;;;;;;4976311;28;19917;-67
2023/02/03 05:56:36;;;;;;;;;;;6.30;99.90;;;;;;4995654;28;20455;-67
2023/02/03 05:59:02;;;;;;;;;;;6.20;99.90;;;;;;4992705;28;20036;-65
2023/02/03 06:01:28;;;;;;;;;;;6.10;99.90;;;;;;4980455;28;19925;-65
2023/02/03 06:03:53;;;;;;;;;;;6.20;99.90;;;;;;4973667;28;19921;-64
2023/02/03 06:06:19;;;;;;;;;;;6.20;99.90;;;;;;4987368;28;20324;-65
2023/02/03 06:08:45;;;;;;;;;;;6.30;99.90;;;;;;4986152;28;20372;-62
2023/02/03 06:11:11;;;;;;;;;;;6.30;99.90;;;;;;4991695;28;19914;-64
2023/02/03 06:13:37;;;;;;;;;;;6.30;99.90;;;;;;4997741;28;20422;-66
2023/02/03 06:16:02;;;;;;;;;;;6.30;99.90;;;;;;4987963;28;19913;-65
2023/02/03 06:18:28;;;;;;;;;;;6.40;99.90;;;;;;4992510;28;19921;-66
2023/02/03 06:20:54;;;;;;;;;;;6.40;99.90;;;;;;4975538;28;20261;-67
2023/02/03 06:23:19;;;;;;;;;;;6.40;99.90;;;;;;4993210;28;20348;-65
2023/02/03 06:25:49;;;;;;;;;;;6.50;99.90;;;;;;4987821;28;20030;-64
2023/02/03 06:28:15;;;;;;;;;;;6.40;99.90;;;;;;4987811;28;20012;-64
2023/02/03 06:30:41;;;;;;;;;;;6.60;99.90;;;;;;4981799;28;19943;-67
2023/02/03 06:33:07;;;;;;;;;;;6.50;99.90;;;;;;4984439;28;19910;-65
2023/02/03 06:35:33;;;;;;;;;;;6.50;99.90;;;;;;4987934;28;20334;-64
2023/02/03 06:37:58;;;;;;;;;;;6.50;99.90;;;;;;4970151;28;19965;-66
2023/02/03 06:40:24;;;;;;;;;;;6.50;99.90;;;;;;4995377;28;19922;-66
2023/02/03 06:42:50;;;;;;;;;;;6.60;99.90;;;;;;4991648;28;19920;-65
2023/02/03 06:45:16;;;;;;;;;;;6.60;99.90;;;;;;4988369;28;20390;-67
2023/02/03 06:47:45;;;;;;;;;;;6.60;99.90;;;;;;4988858;28;19937;-67
2023/02/03 06:50:12;;;;;;;;;;;6.60;99.90;;;;;;4990710;28;20018;-67
2023/02/03 06:52:38;;;;;;;;;;;6.70;99.90;;;;;;4972655;28;19922;-66
2023/02/03 06:55:04;;;;;;;;;;;6.70;99.90;;;;;;4991539;28;19921;-66
2023/02/03 06:57:30;;;;;;;;;;;6.60;99.90;;;;;;4987175;28;19925;-66
2023/02/03 06:59:56;;;;;;;;;;;6.70;99.90;;;;;;4991947;28;19932;-66
2023/02/03 07:02:22;;;;;;;;;;;6.70;99.90;;;;;;4988969;28;19925;-66
2023/02/03 07:04:47;;;;;;;;;;;6.70;99.90;;;;;;4990500;28;19997;-66
2023/02/03 07:07:13;;;;;;;;;;;6.80;99.90;;;;;;4990639;28;19952;-66
2023/02/03 07:09:39;;;;;;;;;;;6.90;99.90;;;;;;4996641;28;19980;-66
2023/02/03 07:12:05;;;;;;;;;;;7.00;99.90;;;;;;4996471;28;19919;-67
2023/02/03 07:14:34;;;;;;;;;;;6.90;99.90;;;;;;4992007;28;19921;-66
2023/02/03 07:16:59;;;;;;;;;;;7.00;99.90;;;;;;4991737;28;19948;-66
2023/02/03 07:19:25;;;;;;;;;;;6.90;99.90;;;;;;4996489;28;20354;-66
2023/02/03 07:21:51;;;;;;;;;;;6.90;99.90;;;;;;4999055;28;20354;-67
2023/02/03 07:24:17;;;;;;;;;;;7.00;99.90;;;;;;4991525;28;19997;-66
2023/02/03 07:26:46;;;;;;;;;;;7.10;99.90;;;;;;4998561;28;19944;-67
2023/02/03 07:29:14;;;;;;;;;;;7.10;99.90;;;;;;4986306;28;19914;-63
2023/02/03 07:31:48;;;;;;;;;;;7.10;99.90;;;;;;4996587;28;19945;-63
2023/02/03 07:34:13;;;;;;;;;;;7.20;99.90;;;;;;4992144;28;19961;-64
2023/02/03 07:36:40;;;;;;;;;;;7.20;99.90;;;;;;4995327;28;19972;-62
2023/02/03 07:39:06;;;;;;;;;;;7.30;99.90;;;;;;4987316;28;19949;-64
2023/02/03 07:41:34;;;;;;;;;;;7.30;99.90;;;;;;4989280;28;20276;-68
2023/02/03 07:44:00;;;;;;;;;;;7.30;99.90;;;;;;4999351;28;19933;-66
2023/02/03 07:46:26;;;;;;;;;;;7.40;99.90;;;;;;4996524;28;20352;-66
2023/02/03 07:48:51;;;;;;;;;;;7.40;99.90;;;;;;4995059;28;20351;-66
2023/02/03 07:51:17;;;;;;;;;;;7.50;99.90;;;;;;4990580;28;19966;-66
2023/02/03 07:53:44;;;;;;;;;;;7.50;99.90;;;;;;4989941;28;20336;-66
2023/02/03 07:56:10;;;;;;;;;;;7.70;99.90;;;;;;4995503;28;20024;-66
2023/02/03 07:58:36;;;;;;;;;;;8.10;99.90;;;;;;4997459;28;20414;-66
2023/02/03 08:01:08;;;;;;;;;;;8.10;99.90;;;;;;5010358;28;19958;-66
2023/02/03 08:03:34;;;;;;;;;;;8.20;99.90;;;;;;4998353;28;20335;-66
2023/02/03 08:06:00;;;;;;;;;;;8.20;99.90;;;;;;4993936;28;19932;-66
2023/02/03 08:08:25;;;;;;;;;;;8.20;99.90;;;;;;4995601;28;19917;-65
2023/02/03 08:10:53;;;;;;;;;;;8.20;99.90;;;;;;4995906;28;19914;-66
2023/02/03 08:13:19;;;;;;;;;;;8.10;99.90;;;;;;5002088;28;19921;-66
2023/02/03 08:15:46;;;;;;;;;;;8.00;99.90;;;;;;4993648;28;19917;-66
2023/02/03 08:18:11;;;;;;;;;;;8.00;99.90;;;;;;4999354;28;19924;-66
2023/02/03 08:20:37;;;;;;;;;;;7.90;99.90;;;;;;4991992;28;19914;-66
2023/02/03 08:23:03;;;;;;;;;;;7.90;99.90;;;;;;4992160;28;19914;-66
2023/02/03 08:25:28;;;;;;;;;;;7.90;99.90;;;;;;4992634;28;19914;-66
2023/02/03 08:27:54;;;;;;;;;;;8.10;99.90;;;;;;4995408;28;19921;-67
2023/02/03 08:30:21;;;;;;;;;;;8.10;99.90;;;;;;4993142;28;19914;-65
2023/02/03 08:32:46;;;;;;;;;;;8.20;99.90;;;;;;4995270;28;20001;-66
2023/02/03 08:35:12;;;;;;;;;;;8.30;99.90;;;;;;4996115;28;20053;-66
2023/02/03 08:37:38;;;;;;;;;;;8.30;99.90;;;;;;4985019;28;19922;-66
2023/02/03 08:40:04;;;;;;;;;;;8.50;99.90;;;;;;4997226;28;19913;-64
2023/02/03 08:42:30;;;;;;;;;;;8.50;99.90;;;;;;4996364;28;19926;-66
2023/02/03 08:44:56;;;;;;;;;;;8.50;99.90;;;;;;4990944;28;20364;-66
2023/02/03 08:47:24;;;;;;;;;;;8.60;99.90;;;;;;4990500;28;19913;-66
2023/02/03 08:49:50;;;;;;;;;;;8.70;99.90;;;;;;4991477;28;19914;-66
2023/02/03 08:52:16;;;;;;;;;;;8.80;99.90;;;;;;4996011;28;19921;-67
2023/02/03 08:54:41;;;;;;;;;;;8.80;99.90;;;;;;4995407;28;19932;-66
2023/02/03 08:57:07;;;;;;;;;;;8.90;99.90;;;;;;5004876;28;20387;-66
2023/02/03 08:59:36;;;;;;;;;;;9.00;99.90;;;;;;4999738;28;19917;-66
2023/02/03 09:02:03;;;;;;;;;;;9.10;99.90;;;;;;4998698;28;19914;-66
2023/02/03 09:04:29;;;;;;;;;;;9.10;99.90;;;;;;4993114;28;19920;-66
2023/02/03 09:06:54;;;;;;;;;;;9.20;99.90;;;;;;4993366;28;20310;-66
2023/02/03 09:09:21;;;;;;;;;;;9.20;99.90;;;;;;4995716;28;19914;-66
2023/02/03 09:11:46;;;;;;;;;;;9.30;99.90;;;;;;4991182;28;19914;-66
2023/02/03 09:14:12;;;;;;;;;;;9.30;99.90;;;;;;4999818;28;20004;-66
2023/02/03 09:16:38;;;;;;;;;;;9.40;99.90;;;;;;4995371;28;19937;-66
2023/02/03 09:19:04;;;;;;;;;;;9.30;99.90;;;;;;4980890;28;20240;-66
2023/02/03 09:21:29;;;;;;;;;;;9.30;99.90;;;;;;4990857;28;19922;-66
2023/02/03 09:23:55;;;;;;;;;;;9.20;99.90;;;;;;4993485;28;20414;-66
2023/02/03 09:26:27;;;;;;;;;;;9.30;99.90;;;;;;4994270;28;19991;-66
2023/02/03 09:28:53;;;;;;;;;;;9.30;99.90;;;;;;4995878;28;19914;-66
2023/02/03 09:31:19;;;;;;;;;;;9.30;99.90;;;;;;4996724;28;19929;-66
2023/02/03 09:33:45;;;;;;;;;;;9.40;99.90;;;;;;4993106;28;19941;-66
2023/02/03 09:36:11;;;;;;;;;;;9.40;99.90;;;;;;4994247;28;19921;-66
2023/02/03 09:38:37;;;;;;;;;;;9.50;99.90;;;;;;4993297;28;20553;-66
2023/02/03 09:41:06;;;;;;;;;;;9.60;99.90;;;;;;4994559;28;19914;-66
2023/02/03 09:43:47;;;;;;;;;;;9.70;99.90;;;;;;4994583;28;19918;-65
2023/02/03 09:46:21;;;;;;;;;;;9.80;99.90;;;;;;4995343;28;19936;-66
2023/02/03 09:48:50;;;;;;;;;;;10.00;99.90;;;;;;4993881;28;19914;-66
2023/02/03 09:51:18;;;;;;;;;;;10.10;99.90;;;;;;4996033;28;20356;-67
2023/02/03 09:53:47;;;;;;;;;;;10.20;99.90;;;;;;4993106;28;19909;-66
2023/02/03 09:56:30;;;;;;;;;;;10.30;99.90;;;;;;4991463;28;19924;-66
2023/02/03 09:58:56;;;;;;;;;;;10.30;99.90;;;;;;4998853;28;19921;-67
2023/02/03 10:01:24;;;;;;;;;;;10.40;99.90;;;;;;5004844;28;19913;-67
2023/02/03 10:04:01;;;;;;;;;;;10.60;99.90;;;;;;5006727;28;19921;-67
2023/02/03 10:06:27;;;;;;;;;;;10.70;99.90;;;;;;4991964;28;19914;-67
2023/02/03 10:09:02;;;;;;;;;;;10.70;99.90;;;;;;4992557;28;19917;-67
2023/02/03 10:11:37;;;;;;;;;;;10.70;99.90;;;;;;4992583;28;19952;-67
2023/02/03 10:14:03;;;;;;;;;;;10.70;99.90;;;;;;4992277;28;19922;-68
2023/02/03 10:16:44;;;;;;;;;;;10.70;99.90;;;;;;4987555;28;19917;-67
2023/02/03 10:19:14;;;;;;;;;;;10.80;99.90;;;;;;4993165;28;19910;-66
2023/02/03 10:21:42;;;;;;;;;;;10.90;99.90;;;;;;4995317;28;19943;-67
2023/02/03 10:24:12;;;;;;;;;;;11.00;99.90;;;;;;4986853;28;19929;-67
2023/02/03 10:26:38;;;;;;;;;;;11.00;99.90;;;;;;4995088;28;19980;-67
2023/02/03 10:29:15;;;;;;;;;;;10.90;99.90;;;;;;4993204;28;20008;-66
2023/02/03 10:31:41;;;;;;;;;;;11.00;99.90;;;;;;4985298;28;20417;-67
2023/02/03 10:34:09;;;;;;;;;;;11.10;99.90;;;;;;4992278;28;19914;-68
2023/02/03 10:36:44;;;;;;;;;;;11.10;99.90;;;;;;4995036;28;20574;-67
2023/02/03 10:39:23;;;;;;;;;;;11.20;99.90;;;;;;4992050;28;19938;-67
2023/02/03 10:41:49;;;;;;;;;;;11.20;99.90;;;;;;4991827;28;19914;-67
2023/02/03 10:44:15;;;;;;;;;;;11.20;99.90;;;;;;4982290;28;19928;-67
2023/02/03 10:46:42;;;;;;;;;;;11.20;99.90;;;;;;4986386;28;19993;-67
2023/02/03 10:49:09;;;;;;;;;;;11.20;99.90;;;;;;4992909;28;20524;-67
2023/02/03 10:52:04;;;;;;;;;;;11.20;99.90;;;;;;4975806;28;19961;-67
2023/02/03 10:54:33;;;;;;;;;;;11.30;99.90;;;;;;4975715;28;19928;-67
2023/02/03 10:57:05;;;;;;;;;;;11.30;99.90;;;;;;4989949;28;19918;-67
2023/02/03 10:59:35;;;;;;;;;;;11.40;99.90;;;;;;4990970;28;19997;-67
2023/02/03 11:02:20;;;;;;;;;;;11.40;99.90;;;;;;4980669;28;20009;-67
2023/02/03 11:04:46;;;;;;;;;;;11.40;99.90;;;;;;4984967;28;19917;-66
2023/02/03 11:07:23;;;;;;;;;;;11.50;99.90;;;;;;4993464;28;20307;-66
2023/02/03 11:09:51;;;;;;;;;;;11.50;99.90;;;;;;4993954;28;19926;-67
2023/02/03 11:12:18;;;;;;;;;;;11.60;99.90;;;;;;4996188;28;20321;-66
2023/02/03 11:14:44;;;;;;;;;;;11.70;99.90;;;;;;4985805;28;19953;-66
2023/02/03 11:17:16;;;;;;;;;;;11.60;99.90;;;;;;4982530;28;19974;-66
2023/02/03 11:19:45;;;;;;;;;;;11.60;99.90;;;;;;4989421;28;20071;-66
2023/02/03 11:22:13;;;;;;;;;;;11.60;99.90;;;;;;4994751;28;20364;-66
2023/02/03 11:24:39;;;;;;;;;;;11.60;99.90;;;;;;4989018;28;19994;-66
2023/02/03 11:27:13;;;;;;;;;;;11.70;99.90;;;;;;4994281;28;19914;-66
2023/02/03 11:29:41;;;;;;;;;;;11.80;99.90;;;;;;4989681;28;19913;-66
2023/02/03 11:32:23;;;;;;;;;;;11.80;99.90;;;;;;4991954;28;20320;-66
2023/02/03 11:35:00;;;;;;;;;;;11.80;99.90;;;;;;5000045;28;20312;-65
2023/02/03 11:37:26;;;;;;;;;;;11.90;99.90;;;;;;4986014;28;20358;-65
2023/02/03 11:40:09;;;;;;;;;;;12.00;99.90;;;;;;4994342;28;19914;-65
2023/02/03 11:42:36;;;;;;;;;;;11.90;99.90;;;;;;4984882;28;20607;-66
2023/02/03 11:45:21;;;;;;;;;;;11.90;99.90;;;;;;4994150;28;19937;-66
2023/02/03 11:47:53;;;;;;;;;;;11.80;99.90;;;;;;4988060;28;19914;-66
2023/02/03 11:50:18;;;;;;;;;;;11.90;99.90;;;;;;4984427;28;20786;-65
2023/02/03 11:52:53;;;;;;;;;;;12.00;99.90;;;;;;4990865;28;20005;-66
2023/02/03 11:55:24;;;;;;;;;;;12.10;99.90;;;;;;4992841;28;19913;-65
2023/02/03 11:57:58;;;;;;;;;;;12.00;99.90;;;;;;4987037;28;20542;-65
2023/02/03 12:00:27;;;;;;;;;;;12.00;99.90;;;;;;4989135;28;19918;-65
2023/02/03 12:03:19;;;;;;;;;;;12.00;99.90;;;;;;4976660;28;20353;-66
2023/02/03 12:06:05;;;;;;;;;;;12.10;99.90;;;;;;4986811;28;19922;-66
2023/02/03 12:08:40;;;;;;;;;;;12.20;99.90;;;;;;4989379;28;19929;-66
2023/02/03 12:11:22;;;;;;;;;;;12.20;99.90;;;;;;4990165;28;19918;-67
2023/02/03 12:14:00;;;;;;;;;;;12.30;99.90;;;;;;4995887;28;19960;-67
2023/02/03 12:16:44;;;;;;;;;;;12.30;99.90;;;;;;4926206;28;1924517;-67
2023/02/03 12:19:28;;;;;;;;;;;12.30;99.90;;;;;;4995300;28;19910;-67
2023/02/03 12:21:59;;;;;;;;;;;12.30;99.90;;;;;;5002347;28;20397;-67
2023/02/03 12:24:49;;;;;;;;;;;12.30;99.90;;;;;;4996474;28;19948;-67
2023/02/03 12:27:23;;;;;;;;;;;12.20;99.90;;;;;;4990275;28;19910;-67
2023/02/03 12:29:57;;;;;;;;;;;12.20;99.90;;;;;;4995959;28;19961;-67
2023/02/03 12:32:41;;;;;;;;;;;12.30;99.90;;;;;;4995549;28;20456;-67
2023/02/03 12:35:29;;;;;;;;;;;12.30;99.90;;;;;;4995705;28;19937;-67
2023/02/03 12:38:00;;;;;;;;;;;12.30;99.90;;;;;;4977730;28;19937;-67
2023/02/03 12:40:36;;;;;;;;;;;12.40;99.90;;;;;;4995421;28;19944;-67
2023/02/03 12:43:21;;;;;;;;;;;12.40;99.90;;;;;;4999736;28;20422;-67
2023/02/03 12:45:51;;;;;;;;;;;12.40;99.90;;;;;;4995385;28;20293;-66
2023/02/03 12:48:19;;;;;;;;;;;12.30;99.90;;;;;;4995766;28;19909;-67
2023/02/03 12:50:48;;;;;;;;;;;12.30;99.90;;;;;;4995798;28;19914;-67
2023/02/03 12:53:16;;;;;;;;;;;12.20;99.90;;;;;;4996304;28;19937;-66
2023/02/03 12:55:44;;;;;;;;;;;12.20;99.90;;;;;;4996320;28;19944;-67
2023/02/03 12:58:13;;;;;;;;;;;12.30;99.90;;;;;;4995526;28;19913;-67
2023/02/03 13:00:44;;;;;;;;;;;12.30;99.90;;;;;;4994212;28;20281;-65
2023/02/03 13:03:14;;;;;;;;;;;12.30;99.90;;;;;;4995335;28;19932;-67
2023/02/03 13:05:53;;;;;;;;;;;12.30;99.90;;;;;;4994550;28;19914;-67
2023/02/03 13:08:22;;;;;;;;;;;12.30;99.90;;;;;;5000725;28;20386;-67
2023/02/03 13:10:53;;;;;;;;;;;12.20;99.90;;;;;;4993840;28;20269;-68
2023/02/03 13:13:27;;;;;;;;;;;12.10;99.90;;;;;;4994288;28;19997;-67
2023/02/03 13:15:55;;;;;;;;;;;12.20;99.90;;;;;;4995308;28;20342;-67
2023/02/03 13:18:30;;;;;;;;;;;12.20;99.90;;;;;;4995776;28;19940;-67
2023/02/03 13:20:55;;;;;;;;;;;12.20;99.90;;;;;;4994112;28;19918;-67
2023/02/03 13:23:21;;;;;;;;;;;12.20;99.90;;;;;;4994282;28;19916;-68
2023/02/03 13:25:53;;;;;;;;;;;12.20;99.90;;;;;;4994426;28;19917;-67
2023/02/03 13:28:37;;;;;;;;;;;12.10;99.90;;;;;;4994475;28;19910;-66
2023/02/03 13:31:03;;;;;;;;;;;12.10;99.90;;;;;;4996155;28;20012;-67
2023/02/03 13:33:41;;;;;;;;;;;12.10;99.90;;;;;;4989850;28;19984;-66
2023/02/03 13:36:25;;;;;;;;;;;12.10;99.90;;;;;;5010936;28;19983;-68
2023/02/03 13:38:51;;;;;;;;;;;12.10;99.90;;;;;;5011756;28;20287;-68
2023/02/03 13:41:34;;;;;;;;;;;12.10;99.90;;;;;;5011874;28;19910;-66
2023/02/03 13:44:00;;;;;;;;;;;12.10;99.90;;;;;;5011840;28;19996;-69
2023/02/03 13:46:30;;;;;;;;;;;12.10;99.90;;;;;;5009672;28;20402;-68
2023/02/03 13:48:58;;;;;;;;;;;12.10;99.90;;;;;;4995421;28;20001;-68
2023/02/03 13:51:34;;;;;;;;;;;12.20;99.90;;;;;;5011651;28;20024;-67
2023/02/03 13:54:02;;;;;;;;;;;12.20;99.90;;;;;;5010512;28;19928;-69
2023/02/03 13:56:28;;;;;;;;;;;12.10;99.90;;;;;;5006944;28;20115;-68
2023/02/03 13:59:02;;;;;;;;;;;12.20;99.90;;;;;;4997470;28;19953;-69
2023/02/03 14:01:32;;;;;;;;;;;12.20;99.90;;;;;;4992314;28;19922;-68
2023/02/03 14:03:58;;;;;;;;;;;12.20;99.90;;;;;;4994679;28;19997;-67
2023/02/03 14:06:53;;;;;;;;;;;12.20;99.90;;;;;;4990529;28;19928;-67
2023/02/03 14:09:18;;;;;;;;;;;12.20;99.90;;;;;;4995004;28;19992;-69
2023/02/03 14:11:45;;;;;;;;;;;12.20;99.90;;;;;;4995640;28;19952;-68
2023/02/03 14:14:10;;;;;;;;;;;12.20;99.90;;;;;;4992553;28;19928;-69
2023/02/03 14:16:37;;;;;;;;;;;12.20;99.90;;;;;;4992504;28;19985;-67
2023/02/03 14:19:03;;;;;;;;;;;12.20;99.90;;;;;;4992435;28;19929;-69
2023/02/03 14:21:45;;;;;;;;;;;12.20;99.90;;;;;;4992771;28;20291;-69
2023/02/03 14:24:11;;;;;;;;;;;12.20;99.90;;;;;;4995012;28;20319;-68
2023/02/03 14:26:40;;;;;;;;;;;12.30;99.90;;;;;;4991833;28;19914;-69
2023/02/03 14:29:06;;;;;;;;;;;12.30;99.90;;;;;;4992685;28;20408;-68
2023/02/03 14:31:50;;;;;;;;;;;12.20;99.90;;;;;;4992556;28;19909;-69
2023/02/03 14:34:16;;;;;;;;;;;12.20;99.90;;;;;;4993096;28;20355;-69
2023/02/03 14:36:44;;;;;;;;;;;12.20;99.90;;;;;;4974973;28;19913;-68